RYR2963 EBCI-LMML
Flight info
| Callsign | RYR2963 |
|---|---|
| Flight time | 2h 22m |
| Altitude | 35000 |
| Route | RITAX UT27 ROUSY DCT GTQ DCT DEVDI DCT ODINA DCT PAL DCT ALOKU DCT MARON DCT EKOLA L12 GZO |
| Aircraft | B738/M-SDE2E3FGHIRWXY/LB1 |
Departure
| Time | 2026-04-27 12:35 |
|---|---|
| Airport | Brussels South Charleroi Airport (EBCI) |
Arrival
| Time | 2026-04-27 14:58 |
|---|---|
| Airport | Malta International Airport (LMML) |
| Time | Latitude | Longitude | Altitude | Speed | Heading |
|---|---|---|---|---|---|
| 2026-04-27 12:12 | 50.46824 | 4.46929 | 611 ft | 0 kts | 334° |
| 2026-04-27 12:25 | 50.46818 | 4.46933 | 611 ft | 2 kts | 332° |
| 2026-04-27 12:25 | 50.46803 | 4.46946 | 623 ft | 2 kts | 330° |
| 2026-04-27 12:25 | 50.46789 | 4.46960 | 622 ft | 2 kts | 320° |
| 2026-04-27 12:26 | 50.46779 | 4.46980 | 627 ft | 2 kts | 274° |
| 2026-04-27 12:26 | 50.46783 | 4.47005 | 627 ft | 2 kts | 246° |
| 2026-04-27 12:26 | 50.46790 | 4.47028 | 624 ft | 2 kts | 245° |
| 2026-04-27 12:26 | 50.46792 | 4.47036 | 623 ft | 0 kts | 245° |
| 2026-04-27 12:30 | 50.46776 | 4.46981 | 627 ft | 11 kts | 245° |
| 2026-04-27 12:30 | 50.46732 | 4.46828 | 619 ft | 15 kts | 245° |
| 2026-04-27 12:30 | 50.46661 | 4.46785 | 617 ft | 11 kts | 157° |
| 2026-04-27 12:30 | 50.46593 | 4.46748 | 611 ft | 15 kts | 240° |
| 2026-04-27 12:31 | 50.46536 | 4.46557 | 615 ft | 24 kts | 245° |
| 2026-04-27 12:31 | 50.46464 | 4.46309 | 617 ft | 25 kts | 245° |
| 2026-04-27 12:31 | 50.46395 | 4.46072 | 623 ft | 23 kts | 245° |
| 2026-04-27 12:31 | 50.46330 | 4.45846 | 621 ft | 23 kts | 245° |
| 2026-04-27 12:32 | 50.46258 | 4.45600 | 616 ft | 27 kts | 245° |
| 2026-04-27 12:32 | 50.46182 | 4.45336 | 619 ft | 26 kts | 245° |
| 2026-04-27 12:32 | 50.46109 | 4.45087 | 615 ft | 24 kts | 245° |
| 2026-04-27 12:32 | 50.46042 | 4.44854 | 617 ft | 23 kts | 245° |
| 2026-04-27 12:33 | 50.45977 | 4.44630 | 624 ft | 22 kts | 245° |
| 2026-04-27 12:33 | 50.45906 | 4.44419 | 618 ft | 22 kts | 234° |
| 2026-04-27 12:33 | 50.45816 | 4.44237 | 616 ft | 21 kts | 232° |
| 2026-04-27 12:33 | 50.45727 | 4.44058 | 612 ft | 20 kts | 232° |
| 2026-04-27 12:34 | 50.45647 | 4.43989 | 619 ft | 12 kts | 152° |
| 2026-04-27 12:34 | 50.45643 | 4.44106 | 615 ft | 14 kts | 66° |
| 2026-04-27 12:34 | 50.45748 | 4.44465 | 623 ft | 71 kts | 65° |
| 2026-04-27 12:34 | 50.46054 | 4.45522 | 621 ft | 138 kts | 65° |
| 2026-04-27 12:35 | 50.46520 | 4.47143 | 834 ft | 173 kts | 65° |
| 2026-04-27 12:35 | 50.47031 | 4.48815 | 1819 ft | 171 kts | 52° |
| 2026-04-27 12:35 | 50.47840 | 4.50204 | 2658 ft | 182 kts | 47° |
| 2026-04-27 12:35 | 50.48730 | 4.51808 | 3165 ft | 204 kts | 51° |
| 2026-04-27 12:36 | 50.49684 | 4.53594 | 3576 ft | 227 kts | 49° |
| 2026-04-27 12:36 | 50.50772 | 4.55522 | 4016 ft | 240 kts | 48° |
| 2026-04-27 12:36 | 50.51931 | 4.57546 | 4439 ft | 259 kts | 48° |
| 2026-04-27 12:36 | 50.53140 | 4.59729 | 5099 ft | 270 kts | 51° |
| 2026-04-27 12:37 | 50.54269 | 4.61990 | 5892 ft | 275 kts | 52° |
| 2026-04-27 12:37 | 50.55446 | 4.64384 | 6748 ft | 280 kts | 52° |
| 2026-04-27 12:37 | 50.56615 | 4.66752 | 7521 ft | 285 kts | 51° |
| 2026-04-27 12:37 | 50.57830 | 4.69225 | 8456 ft | 285 kts | 52° |
| 2026-04-27 12:38 | 50.59039 | 4.71710 | 9299 ft | 288 kts | 51° |
| 2026-04-27 12:38 | 50.60285 | 4.74242 | 10046 ft | 295 kts | 51° |
| 2026-04-27 12:38 | 50.61524 | 4.76854 | 10707 ft | 305 kts | 58° |
| 2026-04-27 12:38 | 50.62177 | 4.80158 | 10896 ft | 332 kts | 88° |
| 2026-04-27 12:39 | 50.61723 | 4.83824 | 11124 ft | 352 kts | 117° |
| 2026-04-27 12:39 | 50.60818 | 4.85959 | 11489 ft | 357 kts | 133° |
| 2026-04-27 12:39 | 50.58999 | 4.88630 | 12215 ft | 360 kts | 142° |
| 2026-04-27 12:39 | 50.56325 | 4.91817 | 13234 ft | 365 kts | 146° |
| 2026-04-27 12:40 | 50.54928 | 4.93401 | 13722 ft | 368 kts | 146° |
| 2026-04-27 12:40 | 50.52833 | 4.95767 | 14380 ft | 373 kts | 146° |
| 2026-04-27 12:40 | 50.50743 | 4.98147 | 15000 ft | 378 kts | 146° |
| 2026-04-27 12:40 | 50.48605 | 5.00611 | 15640 ft | 382 kts | 146° |
| 2026-04-27 12:41 | 50.46449 | 5.03122 | 16277 ft | 387 kts | 145° |
| 2026-04-27 12:41 | 50.44278 | 5.05666 | 16866 ft | 393 kts | 145° |
| 2026-04-27 12:41 | 50.42079 | 5.08253 | 17478 ft | 397 kts | 145° |
| 2026-04-27 12:41 | 50.39852 | 5.10879 | 18091 ft | 402 kts | 145° |
| 2026-04-27 12:42 | 50.37601 | 5.13534 | 18665 ft | 407 kts | 145° |
| 2026-04-27 12:42 | 50.35329 | 5.16212 | 19188 ft | 411 kts | 145° |
| 2026-04-27 12:42 | 50.33065 | 5.18878 | 19782 ft | 412 kts | 145° |
| 2026-04-27 12:42 | 50.30761 | 5.21588 | 20347 ft | 415 kts | 145° |
| 2026-04-27 12:43 | 50.28441 | 5.24313 | 20882 ft | 418 kts | 145° |
| 2026-04-27 12:43 | 50.26114 | 5.27043 | 21414 ft | 421 kts | 145° |
| 2026-04-27 12:43 | 50.23759 | 5.29802 | 21927 ft | 424 kts | 145° |
| 2026-04-27 12:43 | 50.21392 | 5.32571 | 22450 ft | 426 kts | 146° |
| 2026-04-27 12:44 | 50.19004 | 5.35360 | 22965 ft | 429 kts | 146° |
| 2026-04-27 12:44 | 50.16608 | 5.38156 | 23469 ft | 432 kts | 146° |
| 2026-04-27 12:44 | 50.14186 | 5.40978 | 23925 ft | 435 kts | 146° |
| 2026-04-27 12:44 | 50.11753 | 5.43809 | 24321 ft | 438 kts | 146° |
| 2026-04-27 12:45 | 50.09306 | 5.46654 | 24718 ft | 440 kts | 146° |
| 2026-04-27 12:45 | 50.06842 | 5.49514 | 25100 ft | 443 kts | 146° |
| 2026-04-27 12:45 | 50.04353 | 5.52398 | 25451 ft | 446 kts | 147° |
| 2026-04-27 12:45 | 50.01888 | 5.55252 | 25796 ft | 449 kts | 147° |
| 2026-04-27 12:46 | 49.99371 | 5.58162 | 26176 ft | 452 kts | 147° |
| 2026-04-27 12:46 | 49.96839 | 5.61084 | 26540 ft | 454 kts | 147° |
| 2026-04-27 12:46 | 49.94264 | 5.64054 | 26891 ft | 457 kts | 147° |
| 2026-04-27 12:46 | 49.91737 | 5.66963 | 27224 ft | 460 kts | 147° |
| 2026-04-27 12:47 | 49.89158 | 5.69929 | 27554 ft | 462 kts | 147° |
| 2026-04-27 12:47 | 49.86562 | 5.72911 | 27886 ft | 465 kts | 147° |
| 2026-04-27 12:47 | 49.83956 | 5.75899 | 28209 ft | 467 kts | 147° |
| 2026-04-27 12:47 | 49.81337 | 5.78899 | 28534 ft | 469 kts | 147° |
| 2026-04-27 12:48 | 49.78707 | 5.81908 | 28841 ft | 472 kts | 147° |
| 2026-04-27 12:48 | 49.76055 | 5.84936 | 29128 ft | 475 kts | 148° |
| 2026-04-27 12:48 | 49.73393 | 5.87972 | 29426 ft | 477 kts | 148° |
| 2026-04-27 12:48 | 49.70709 | 5.91028 | 29715 ft | 479 kts | 148° |
| 2026-04-27 12:49 | 49.68022 | 5.94085 | 30055 ft | 480 kts | 148° |
| 2026-04-27 12:49 | 49.65335 | 5.97139 | 30461 ft | 479 kts | 148° |
| 2026-04-27 12:49 | 49.62657 | 6.00179 | 30844 ft | 477 kts | 148° |
| 2026-04-27 12:49 | 49.59979 | 6.03214 | 31222 ft | 476 kts | 148° |
| 2026-04-27 12:50 | 49.57319 | 6.06222 | 31559 ft | 475 kts | 148° |
| 2026-04-27 12:50 | 49.54650 | 6.09237 | 31895 ft | 474 kts | 148° |
| 2026-04-27 12:50 | 49.51988 | 6.12239 | 32221 ft | 473 kts | 148° |
| 2026-04-27 12:50 | 49.49366 | 6.15191 | 32559 ft | 473 kts | 148° |
| 2026-04-27 12:51 | 49.46680 | 6.18213 | 32867 ft | 472 kts | 148° |
| 2026-04-27 12:51 | 49.44030 | 6.21189 | 33162 ft | 472 kts | 148° |
| 2026-04-27 12:51 | 49.41416 | 6.24120 | 33464 ft | 471 kts | 148° |
| 2026-04-27 12:51 | 49.38766 | 6.27089 | 33778 ft | 471 kts | 148° |
| 2026-04-27 12:52 | 49.36127 | 6.30041 | 34080 ft | 470 kts | 148° |
| 2026-04-27 12:52 | 49.33485 | 6.32992 | 34364 ft | 469 kts | 148° |
| 2026-04-27 12:52 | 49.30851 | 6.35933 | 34645 ft | 468 kts | 148° |
| 2026-04-27 12:52 | 49.28215 | 6.38870 | 34895 ft | 468 kts | 148° |
| 2026-04-27 12:53 | 49.22943 | 6.44729 | 35188 ft | 471 kts | 148° |
| 2026-04-27 12:53 | 49.17621 | 6.50628 | 35190 ft | 472 kts | 148° |
| 2026-04-27 12:54 | 49.12304 | 6.56514 | 35175 ft | 467 kts | 148° |
| 2026-04-27 12:54 | 49.07085 | 6.62271 | 35186 ft | 465 kts | 148° |
| 2026-04-27 12:55 | 49.01831 | 6.68052 | 35187 ft | 464 kts | 148° |
| 2026-04-27 12:55 | 48.96419 | 6.73288 | 35182 ft | 456 kts | 160° |
| 2026-04-27 12:56 | 48.90621 | 6.77210 | 35184 ft | 456 kts | 161° |
| 2026-04-27 12:56 | 48.84798 | 6.81070 | 35185 ft | 458 kts | 161° |
| 2026-04-27 12:57 | 48.78954 | 6.84997 | 35194 ft | 460 kts | 161° |
| 2026-04-27 12:57 | 48.73091 | 6.88968 | 35180 ft | 463 kts | 161° |
| 2026-04-27 12:58 | 48.67205 | 6.92957 | 35168 ft | 464 kts | 160° |
| 2026-04-27 12:58 | 48.61291 | 6.96953 | 35164 ft | 466 kts | 160° |
| 2026-04-27 12:59 | 48.55406 | 7.00918 | 35162 ft | 466 kts | 160° |
| 2026-04-27 12:59 | 48.49477 | 7.04902 | 35171 ft | 466 kts | 160° |
| 2026-04-27 13:00 | 48.43556 | 7.08869 | 35169 ft | 466 kts | 160° |
| 2026-04-27 13:00 | 48.37639 | 7.12825 | 35166 ft | 465 kts | 160° |
| 2026-04-27 13:01 | 48.31718 | 7.16771 | 35157 ft | 464 kts | 160° |
| 2026-04-27 13:01 | 48.25832 | 7.20685 | 35161 ft | 464 kts | 160° |
| 2026-04-27 13:02 | 48.19925 | 7.24603 | 35150 ft | 463 kts | 160° |
| 2026-04-27 13:02 | 48.14043 | 7.28495 | 35156 ft | 461 kts | 160° |
| 2026-04-27 13:03 | 48.08204 | 7.32349 | 35159 ft | 460 kts | 160° |
| 2026-04-27 13:03 | 48.02325 | 7.36218 | 35157 ft | 460 kts | 160° |
| 2026-04-27 13:04 | 47.96472 | 7.40062 | 35160 ft | 459 kts | 160° |
| 2026-04-27 13:04 | 47.90615 | 7.43899 | 35158 ft | 460 kts | 160° |
| 2026-04-27 13:05 | 47.88146 | 7.45513 | 35160 ft | 460 kts | 160° |
| 2026-04-27 13:05 | 47.82287 | 7.49338 | 35155 ft | 460 kts | 160° |
| 2026-04-27 13:06 | 47.76461 | 7.53134 | 35163 ft | 460 kts | 160° |
| 2026-04-27 13:06 | 47.70612 | 7.57018 | 35157 ft | 461 kts | 158° |
| 2026-04-27 13:07 | 47.64794 | 7.61136 | 35160 ft | 462 kts | 158° |
| 2026-04-27 13:07 | 47.58990 | 7.65271 | 35160 ft | 463 kts | 158° |
| 2026-04-27 13:08 | 47.53199 | 7.69357 | 35152 ft | 463 kts | 158° |
| 2026-04-27 13:08 | 47.47371 | 7.73439 | 35153 ft | 463 kts | 158° |
| 2026-04-27 13:09 | 47.41544 | 7.77506 | 35148 ft | 462 kts | 158° |
| 2026-04-27 13:09 | 47.35728 | 7.81555 | 35149 ft | 462 kts | 158° |
| 2026-04-27 13:10 | 47.29910 | 7.85596 | 35136 ft | 461 kts | 158° |
| 2026-04-27 13:10 | 47.24158 | 7.89581 | 35132 ft | 461 kts | 158° |
| 2026-04-27 13:11 | 47.18280 | 7.93601 | 35133 ft | 460 kts | 158° |
| 2026-04-27 13:11 | 47.12487 | 7.97496 | 35137 ft | 460 kts | 158° |
| 2026-04-27 13:12 | 47.06660 | 8.01405 | 35132 ft | 460 kts | 158° |
| 2026-04-27 13:12 | 47.00842 | 8.05310 | 35127 ft | 460 kts | 158° |
| 2026-04-27 13:13 | 46.95014 | 8.09216 | 35133 ft | 460 kts | 158° |
| 2026-04-27 13:13 | 46.89184 | 8.13116 | 35136 ft | 461 kts | 158° |
| 2026-04-27 13:14 | 46.83343 | 8.17013 | 35129 ft | 462 kts | 158° |
| 2026-04-27 13:14 | 46.77489 | 8.20909 | 35114 ft | 462 kts | 158° |
| 2026-04-27 13:15 | 46.71708 | 8.24749 | 35132 ft | 461 kts | 158° |
| 2026-04-27 13:15 | 46.65841 | 8.28635 | 35128 ft | 461 kts | 158° |
| 2026-04-27 13:16 | 46.59954 | 8.32525 | 35138 ft | 462 kts | 157° |
| 2026-04-27 13:16 | 46.54108 | 8.36378 | 35121 ft | 461 kts | 157° |
| 2026-04-27 13:17 | 46.48301 | 8.40198 | 35117 ft | 461 kts | 157° |
| 2026-04-27 13:17 | 46.42470 | 8.44025 | 35120 ft | 460 kts | 157° |
| 2026-04-27 13:18 | 46.36632 | 8.47847 | 35104 ft | 460 kts | 157° |
| 2026-04-27 13:18 | 46.30808 | 8.51650 | 35094 ft | 458 kts | 157° |
| 2026-04-27 13:19 | 46.24999 | 8.55434 | 35079 ft | 458 kts | 157° |
| 2026-04-27 13:19 | 46.19177 | 8.59218 | 35096 ft | 459 kts | 157° |
| 2026-04-27 13:20 | 46.13338 | 8.63005 | 35089 ft | 460 kts | 157° |
| 2026-04-27 13:20 | 46.07522 | 8.66768 | 35074 ft | 461 kts | 156° |
| 2026-04-27 13:21 | 46.01649 | 8.70559 | 35070 ft | 462 kts | 156° |
| 2026-04-27 13:21 | 45.95787 | 8.74334 | 35081 ft | 462 kts | 156° |
| 2026-04-27 13:22 | 45.90405 | 8.77792 | 35079 ft | 463 kts | 156° |
| 2026-04-27 13:22 | 45.85523 | 8.80923 | 35083 ft | 463 kts | 156° |
| 2026-04-27 13:23 | 45.79631 | 8.84693 | 35104 ft | 463 kts | 156° |
| 2026-04-27 13:23 | 45.73746 | 8.88451 | 35099 ft | 463 kts | 156° |
| 2026-04-27 13:24 | 45.67872 | 8.92191 | 35103 ft | 463 kts | 156° |
| 2026-04-27 13:24 | 45.61992 | 8.95928 | 35090 ft | 462 kts | 156° |
| 2026-04-27 13:25 | 45.56111 | 8.99656 | 35099 ft | 462 kts | 156° |
| 2026-04-27 13:25 | 45.50278 | 9.03346 | 35078 ft | 461 kts | 156° |
| 2026-04-27 13:26 | 45.44415 | 9.07046 | 35077 ft | 461 kts | 156° |
| 2026-04-27 13:26 | 45.38549 | 9.10739 | 35079 ft | 460 kts | 156° |
| 2026-04-27 13:27 | 45.32692 | 9.14419 | 35077 ft | 460 kts | 156° |
| 2026-04-27 13:27 | 45.26826 | 9.18097 | 35079 ft | 460 kts | 156° |
| 2026-04-27 13:28 | 45.20974 | 9.21755 | 35076 ft | 460 kts | 156° |
| 2026-04-27 13:28 | 45.15122 | 9.25407 | 35075 ft | 459 kts | 156° |
| 2026-04-27 13:29 | 45.09259 | 9.29058 | 35087 ft | 459 kts | 156° |
| 2026-04-27 13:29 | 45.03409 | 9.32691 | 35082 ft | 459 kts | 156° |
| 2026-04-27 13:30 | 44.97581 | 9.36303 | 35081 ft | 459 kts | 156° |
| 2026-04-27 13:30 | 44.91731 | 9.39921 | 35082 ft | 459 kts | 156° |
| 2026-04-27 13:31 | 44.85859 | 9.43544 | 35083 ft | 459 kts | 156° |
| 2026-04-27 13:31 | 44.80039 | 9.47127 | 35082 ft | 458 kts | 156° |
| 2026-04-27 13:32 | 44.74197 | 9.50716 | 35083 ft | 458 kts | 156° |
| 2026-04-27 13:32 | 44.68359 | 9.54294 | 35089 ft | 458 kts | 156° |
| 2026-04-27 13:33 | 44.62516 | 9.57868 | 35102 ft | 457 kts | 156° |
| 2026-04-27 13:33 | 44.56673 | 9.61433 | 35110 ft | 457 kts | 156° |
| 2026-04-27 13:34 | 44.50840 | 9.64985 | 35108 ft | 457 kts | 156° |
| 2026-04-27 13:34 | 44.45025 | 9.68518 | 35114 ft | 457 kts | 156° |
| 2026-04-27 13:35 | 44.39195 | 9.72052 | 35118 ft | 457 kts | 156° |
| 2026-04-27 13:35 | 44.33365 | 9.75579 | 35119 ft | 456 kts | 156° |
| 2026-04-27 13:36 | 44.27562 | 9.79082 | 35123 ft | 456 kts | 156° |
| 2026-04-27 13:36 | 44.21698 | 9.82614 | 35132 ft | 455 kts | 157° |
| 2026-04-27 13:37 | 44.15913 | 9.86091 | 35129 ft | 455 kts | 157° |
| 2026-04-27 13:37 | 44.10091 | 9.89583 | 35137 ft | 455 kts | 157° |
| 2026-04-27 13:38 | 44.04271 | 9.93065 | 35129 ft | 455 kts | 157° |
| 2026-04-27 13:38 | 43.98442 | 9.96546 | 35130 ft | 455 kts | 157° |
| 2026-04-27 13:39 | 43.92663 | 9.99989 | 35130 ft | 454 kts | 157° |
| 2026-04-27 13:39 | 43.86848 | 10.03447 | 35135 ft | 454 kts | 157° |
| 2026-04-27 13:40 | 43.81053 | 10.06885 | 35134 ft | 453 kts | 157° |
| 2026-04-27 13:40 | 43.75250 | 10.10321 | 35134 ft | 453 kts | 157° |
| 2026-04-27 13:41 | 43.69459 | 10.13743 | 35133 ft | 453 kts | 157° |
| 2026-04-27 13:41 | 43.63703 | 10.17136 | 35133 ft | 452 kts | 157° |
| 2026-04-27 13:42 | 43.57913 | 10.20543 | 35131 ft | 452 kts | 157° |
| 2026-04-27 13:42 | 43.52113 | 10.23948 | 35135 ft | 452 kts | 157° |
| 2026-04-27 13:43 | 43.46324 | 10.27340 | 35136 ft | 452 kts | 157° |
| 2026-04-27 13:43 | 43.40530 | 10.30727 | 35140 ft | 452 kts | 157° |
| 2026-04-27 13:44 | 43.34778 | 10.34083 | 35138 ft | 452 kts | 157° |
| 2026-04-27 13:44 | 43.29001 | 10.37447 | 35139 ft | 451 kts | 157° |
| 2026-04-27 13:45 | 43.23217 | 10.40808 | 35140 ft | 451 kts | 157° |
| 2026-04-27 13:45 | 43.17422 | 10.44168 | 35139 ft | 451 kts | 157° |
| 2026-04-27 13:46 | 43.11634 | 10.47517 | 35141 ft | 451 kts | 157° |
| 2026-04-27 13:46 | 43.05846 | 10.50859 | 35141 ft | 451 kts | 157° |
| 2026-04-27 13:47 | 43.00096 | 10.54173 | 35145 ft | 451 kts | 157° |
| 2026-04-27 13:47 | 42.94292 | 10.57511 | 35143 ft | 452 kts | 157° |
| 2026-04-27 13:48 | 42.88503 | 10.60833 | 35140 ft | 451 kts | 157° |
| 2026-04-27 13:48 | 42.82699 | 10.64157 | 35140 ft | 451 kts | 158° |
| 2026-04-27 13:49 | 42.76914 | 10.67464 | 35139 ft | 451 kts | 158° |
| 2026-04-27 13:49 | 42.71152 | 10.70751 | 35137 ft | 451 kts | 158° |
| 2026-04-27 13:50 | 42.65370 | 10.74042 | 35137 ft | 451 kts | 158° |
| 2026-04-27 13:50 | 42.59571 | 10.77337 | 35140 ft | 451 kts | 158° |
| 2026-04-27 13:51 | 42.53787 | 10.80616 | 35145 ft | 451 kts | 158° |
| 2026-04-27 13:51 | 42.47990 | 10.83897 | 35144 ft | 451 kts | 158° |
| 2026-04-27 13:52 | 42.42185 | 10.87174 | 35149 ft | 451 kts | 159° |
| 2026-04-27 13:52 | 42.36385 | 10.90443 | 35154 ft | 452 kts | 159° |
| 2026-04-27 13:53 | 42.27696 | 10.95328 | 35144 ft | 453 kts | 159° |
| 2026-04-27 13:54 | 42.21871 | 10.98594 | 35153 ft | 453 kts | 159° |
| 2026-04-27 13:54 | 42.16038 | 11.01858 | 35147 ft | 454 kts | 159° |
| 2026-04-27 13:55 | 42.10194 | 11.05122 | 35143 ft | 454 kts | 159° |
| 2026-04-27 13:55 | 42.04353 | 11.08378 | 35141 ft | 454 kts | 159° |
| 2026-04-27 13:56 | 41.98556 | 11.11602 | 35141 ft | 454 kts | 160° |
| 2026-04-27 13:56 | 41.92713 | 11.14846 | 35137 ft | 454 kts | 160° |
| 2026-04-27 13:57 | 41.86875 | 11.18081 | 35140 ft | 453 kts | 160° |
| 2026-04-27 13:57 | 41.81054 | 11.21300 | 35136 ft | 453 kts | 160° |
| 2026-04-27 13:58 | 41.75229 | 11.24515 | 35138 ft | 452 kts | 160° |
| 2026-04-27 13:58 | 41.69416 | 11.27716 | 35138 ft | 451 kts | 160° |
| 2026-04-27 13:59 | 41.63601 | 11.30913 | 35137 ft | 451 kts | 160° |
| 2026-04-27 13:59 | 41.57829 | 11.34079 | 35138 ft | 450 kts | 160° |
| 2026-04-27 14:00 | 41.52034 | 11.37253 | 35133 ft | 450 kts | 160° |
| 2026-04-27 14:00 | 41.46234 | 11.40423 | 35136 ft | 450 kts | 160° |
| 2026-04-27 14:01 | 41.40435 | 11.43586 | 35134 ft | 450 kts | 160° |
| 2026-04-27 14:01 | 41.34626 | 11.46748 | 35141 ft | 450 kts | 160° |
| 2026-04-27 14:02 | 41.28864 | 11.49878 | 35145 ft | 450 kts | 160° |
| 2026-04-27 14:02 | 41.23056 | 11.53029 | 35137 ft | 451 kts | 160° |
| 2026-04-27 14:03 | 41.17232 | 11.56181 | 35137 ft | 451 kts | 160° |
| 2026-04-27 14:03 | 41.11404 | 11.59329 | 35136 ft | 452 kts | 160° |
| 2026-04-27 14:04 | 41.05583 | 11.62468 | 35136 ft | 452 kts | 160° |
| 2026-04-27 14:04 | 40.99756 | 11.65604 | 35135 ft | 452 kts | 160° |
| 2026-04-27 14:05 | 40.93954 | 11.68720 | 35135 ft | 452 kts | 160° |
| 2026-04-27 14:05 | 40.88117 | 11.71850 | 35137 ft | 452 kts | 160° |
| 2026-04-27 14:06 | 40.82280 | 11.74973 | 35139 ft | 452 kts | 160° |
| 2026-04-27 14:06 | 40.76479 | 11.78071 | 35137 ft | 452 kts | 160° |
| 2026-04-27 14:07 | 40.70643 | 11.81182 | 35138 ft | 452 kts | 160° |
| 2026-04-27 14:07 | 40.64816 | 11.84282 | 35138 ft | 451 kts | 160° |
| 2026-04-27 14:08 | 40.58975 | 11.87384 | 35135 ft | 451 kts | 160° |
| 2026-04-27 14:08 | 40.53149 | 11.90472 | 35134 ft | 451 kts | 160° |
| 2026-04-27 14:09 | 40.47367 | 11.93531 | 35138 ft | 450 kts | 160° |
| 2026-04-27 14:09 | 40.41552 | 11.96602 | 35138 ft | 450 kts | 160° |
| 2026-04-27 14:10 | 40.35732 | 11.99670 | 35139 ft | 450 kts | 160° |
| 2026-04-27 14:10 | 40.30902 | 12.02211 | 35138 ft | 449 kts | 160° |
| 2026-04-27 14:11 | 40.24158 | 12.05753 | 35133 ft | 449 kts | 160° |
| 2026-04-27 14:11 | 40.19328 | 12.08285 | 35134 ft | 449 kts | 160° |
| 2026-04-27 14:12 | 40.13536 | 12.11316 | 35136 ft | 449 kts | 160° |
| 2026-04-27 14:12 | 40.07729 | 12.14350 | 35136 ft | 448 kts | 160° |
| 2026-04-27 14:13 | 40.01925 | 12.17376 | 35138 ft | 448 kts | 160° |
| 2026-04-27 14:13 | 39.96132 | 12.20392 | 35137 ft | 448 kts | 160° |
| 2026-04-27 14:14 | 39.90342 | 12.23400 | 35133 ft | 448 kts | 160° |
| 2026-04-27 14:14 | 39.84581 | 12.26387 | 35136 ft | 448 kts | 160° |
| 2026-04-27 14:15 | 39.78783 | 12.29389 | 35137 ft | 448 kts | 160° |
| 2026-04-27 14:15 | 39.72965 | 12.32395 | 35136 ft | 448 kts | 160° |
| 2026-04-27 14:16 | 39.67167 | 12.35385 | 35132 ft | 448 kts | 160° |
| 2026-04-27 14:16 | 39.61365 | 12.38372 | 35133 ft | 448 kts | 160° |
| 2026-04-27 14:17 | 39.55599 | 12.41335 | 35134 ft | 448 kts | 160° |
| 2026-04-27 14:17 | 39.49793 | 12.44314 | 35131 ft | 449 kts | 160° |
| 2026-04-27 14:18 | 39.43985 | 12.47288 | 35134 ft | 449 kts | 160° |
| 2026-04-27 14:18 | 39.38167 | 12.50262 | 35133 ft | 449 kts | 160° |
| 2026-04-27 14:19 | 39.32358 | 12.53225 | 35129 ft | 449 kts | 160° |
| 2026-04-27 14:19 | 39.26536 | 12.56190 | 35128 ft | 449 kts | 160° |
| 2026-04-27 14:20 | 39.20715 | 12.59150 | 35130 ft | 450 kts | 161° |
| 2026-04-27 14:20 | 39.14894 | 12.62104 | 35130 ft | 450 kts | 161° |
| 2026-04-27 14:21 | 39.09056 | 12.65062 | 35127 ft | 450 kts | 161° |
| 2026-04-27 14:21 | 39.03261 | 12.67992 | 35129 ft | 450 kts | 161° |
| 2026-04-27 14:22 | 38.97420 | 12.70941 | 35126 ft | 451 kts | 161° |
| 2026-04-27 14:22 | 38.91566 | 12.73890 | 35126 ft | 451 kts | 161° |
| 2026-04-27 14:23 | 38.85728 | 12.76827 | 35130 ft | 451 kts | 161° |
| 2026-04-27 14:23 | 38.79910 | 12.79748 | 35128 ft | 451 kts | 161° |
| 2026-04-27 14:24 | 38.74052 | 12.82684 | 35122 ft | 452 kts | 161° |
| 2026-04-27 14:24 | 38.68189 | 12.85618 | 35120 ft | 452 kts | 161° |
| 2026-04-27 14:25 | 38.62314 | 12.88552 | 35118 ft | 453 kts | 162° |
| 2026-04-27 14:25 | 38.56442 | 12.91480 | 35127 ft | 453 kts | 162° |
| 2026-04-27 14:26 | 38.50610 | 12.94382 | 35123 ft | 453 kts | 162° |
| 2026-04-27 14:26 | 38.44716 | 12.97311 | 35115 ft | 454 kts | 162° |
| 2026-04-27 14:27 | 38.38828 | 13.00232 | 35114 ft | 455 kts | 162° |
| 2026-04-27 14:27 | 38.32926 | 13.03154 | 35106 ft | 455 kts | 162° |
| 2026-04-27 14:28 | 38.27011 | 13.06077 | 35101 ft | 456 kts | 162° |
| 2026-04-27 14:28 | 38.21097 | 13.08995 | 35098 ft | 456 kts | 162° |
| 2026-04-27 14:29 | 38.15174 | 13.11913 | 35106 ft | 456 kts | 162° |
| 2026-04-27 14:29 | 38.09259 | 13.14823 | 35101 ft | 453 kts | 162° |
| 2026-04-27 14:30 | 38.03417 | 13.17692 | 35095 ft | 448 kts | 162° |
| 2026-04-27 14:30 | 37.97669 | 13.20664 | 34710 ft | 447 kts | 160° |
| 2026-04-27 14:30 | 37.94823 | 13.22189 | 34357 ft | 442 kts | 160° |
| 2026-04-27 14:31 | 37.92012 | 13.23698 | 33935 ft | 439 kts | 160° |
| 2026-04-27 14:31 | 37.89202 | 13.25201 | 33490 ft | 435 kts | 160° |
| 2026-04-27 14:31 | 37.86421 | 13.26681 | 33066 ft | 432 kts | 160° |
| 2026-04-27 14:31 | 37.83664 | 13.28142 | 32665 ft | 428 kts | 160° |
| 2026-04-27 14:32 | 37.80929 | 13.29587 | 32259 ft | 425 kts | 160° |
| 2026-04-27 14:32 | 37.78196 | 13.31027 | 31862 ft | 422 kts | 160° |
| 2026-04-27 14:32 | 37.75490 | 13.32451 | 31460 ft | 420 kts | 160° |
| 2026-04-27 14:32 | 37.72802 | 13.33866 | 31080 ft | 417 kts | 160° |
| 2026-04-27 14:33 | 37.70158 | 13.35255 | 30686 ft | 415 kts | 160° |
| 2026-04-27 14:33 | 37.67496 | 13.36653 | 30307 ft | 412 kts | 160° |
| 2026-04-27 14:33 | 37.64847 | 13.38044 | 29879 ft | 410 kts | 160° |
| 2026-04-27 14:33 | 37.62223 | 13.39421 | 29441 ft | 407 kts | 160° |
| 2026-04-27 14:34 | 37.59624 | 13.40783 | 29048 ft | 403 kts | 160° |
| 2026-04-27 14:34 | 37.57045 | 13.42134 | 28636 ft | 400 kts | 160° |
| 2026-04-27 14:34 | 37.54481 | 13.43476 | 28241 ft | 397 kts | 160° |
| 2026-04-27 14:34 | 37.51937 | 13.44807 | 27834 ft | 394 kts | 160° |
| 2026-04-27 14:35 | 37.49413 | 13.46125 | 27446 ft | 391 kts | 160° |
| 2026-04-27 14:35 | 37.46940 | 13.47417 | 27066 ft | 389 kts | 160° |
| 2026-04-27 14:35 | 37.44448 | 13.48717 | 26690 ft | 387 kts | 161° |
| 2026-04-27 14:35 | 37.41972 | 13.50009 | 26297 ft | 385 kts | 161° |
| 2026-04-27 14:36 | 37.39501 | 13.51297 | 25910 ft | 383 kts | 161° |
| 2026-04-27 14:36 | 37.37033 | 13.52582 | 25533 ft | 381 kts | 161° |
| 2026-04-27 14:36 | 37.34581 | 13.53858 | 25150 ft | 380 kts | 161° |
| 2026-04-27 14:36 | 37.32145 | 13.55125 | 24768 ft | 379 kts | 161° |
| 2026-04-27 14:37 | 37.29716 | 13.56387 | 24402 ft | 377 kts | 161° |
| 2026-04-27 14:37 | 37.27286 | 13.57644 | 23997 ft | 377 kts | 161° |
| 2026-04-27 14:37 | 37.24861 | 13.58893 | 23599 ft | 377 kts | 161° |
| 2026-04-27 14:37 | 37.22468 | 13.60123 | 23154 ft | 375 kts | 161° |
| 2026-04-27 14:38 | 37.20061 | 13.61362 | 22755 ft | 373 kts | 161° |
| 2026-04-27 14:38 | 37.17662 | 13.62596 | 22370 ft | 371 kts | 161° |
| 2026-04-27 14:38 | 37.15285 | 13.63818 | 21991 ft | 369 kts | 161° |
| 2026-04-27 14:38 | 37.12918 | 13.65033 | 21617 ft | 366 kts | 161° |
| 2026-04-27 14:39 | 37.10562 | 13.66244 | 21238 ft | 365 kts | 161° |
| 2026-04-27 14:39 | 37.08220 | 13.67450 | 20855 ft | 363 kts | 161° |
| 2026-04-27 14:39 | 37.05887 | 13.68651 | 20478 ft | 362 kts | 161° |
| 2026-04-27 14:39 | 37.03554 | 13.69853 | 20110 ft | 360 kts | 161° |
| 2026-04-27 14:40 | 37.01241 | 13.71042 | 19745 ft | 359 kts | 161° |
| 2026-04-27 14:40 | 36.98937 | 13.72227 | 19389 ft | 357 kts | 161° |
| 2026-04-27 14:40 | 36.96640 | 13.73407 | 19023 ft | 356 kts | 161° |
| 2026-04-27 14:40 | 36.94347 | 13.74583 | 18645 ft | 356 kts | 161° |
| 2026-04-27 14:41 | 36.92093 | 13.75740 | 18258 ft | 355 kts | 161° |
| 2026-04-27 14:41 | 36.89816 | 13.76907 | 17862 ft | 353 kts | 161° |
| 2026-04-27 14:41 | 36.87542 | 13.78072 | 17484 ft | 351 kts | 161° |
| 2026-04-27 14:41 | 36.85289 | 13.79226 | 17105 ft | 349 kts | 161° |
| 2026-04-27 14:42 | 36.83044 | 13.80375 | 16759 ft | 347 kts | 161° |
| 2026-04-27 14:42 | 36.80815 | 13.81515 | 16400 ft | 345 kts | 161° |
| 2026-04-27 14:42 | 36.78601 | 13.82646 | 16039 ft | 343 kts | 161° |
| 2026-04-27 14:42 | 36.76396 | 13.83772 | 15699 ft | 341 kts | 161° |
| 2026-04-27 14:43 | 36.74197 | 13.84894 | 15347 ft | 340 kts | 161° |
| 2026-04-27 14:43 | 36.72033 | 13.85998 | 14998 ft | 338 kts | 161° |
| 2026-04-27 14:43 | 36.69859 | 13.87106 | 14650 ft | 337 kts | 161° |
| 2026-04-27 14:43 | 36.67690 | 13.88211 | 14306 ft | 336 kts | 161° |
| 2026-04-27 14:44 | 36.65531 | 13.89310 | 13952 ft | 335 kts | 161° |
| 2026-04-27 14:44 | 36.63380 | 13.90405 | 13570 ft | 334 kts | 161° |
| 2026-04-27 14:44 | 36.61233 | 13.91497 | 13196 ft | 332 kts | 161° |
| 2026-04-27 14:44 | 36.59098 | 13.92582 | 12838 ft | 330 kts | 161° |
| 2026-04-27 14:45 | 36.56971 | 13.93663 | 12489 ft | 329 kts | 161° |
| 2026-04-27 14:45 | 36.54860 | 13.94735 | 12138 ft | 327 kts | 161° |
| 2026-04-27 14:45 | 36.52760 | 13.95800 | 11799 ft | 325 kts | 161° |
| 2026-04-27 14:45 | 36.50668 | 13.96860 | 11458 ft | 324 kts | 161° |
| 2026-04-27 14:46 | 36.48568 | 13.97864 | 11119 ft | 322 kts | 163° |
| 2026-04-27 14:46 | 36.46460 | 13.98762 | 10790 ft | 320 kts | 165° |
| 2026-04-27 14:46 | 36.44354 | 13.99627 | 10466 ft | 318 kts | 165° |
| 2026-04-27 14:46 | 36.42283 | 14.00477 | 10324 ft | 310 kts | 165° |
| 2026-04-27 14:47 | 36.40259 | 14.01313 | 10173 ft | 303 kts | 165° |
| 2026-04-27 14:47 | 36.38271 | 14.02137 | 9932 ft | 299 kts | 165° |
| 2026-04-27 14:47 | 36.36328 | 14.02945 | 9628 ft | 298 kts | 164° |
| 2026-04-27 14:47 | 36.34368 | 14.03762 | 9331 ft | 296 kts | 164° |
| 2026-04-27 14:48 | 36.32420 | 14.04575 | 9037 ft | 294 kts | 164° |
| 2026-04-27 14:48 | 36.28563 | 14.06186 | 8454 ft | 291 kts | 164° |
| 2026-04-27 14:48 | 36.26650 | 14.06986 | 8166 ft | 289 kts | 164° |
| 2026-04-27 14:49 | 36.24749 | 14.07780 | 7879 ft | 287 kts | 164° |
| 2026-04-27 14:49 | 36.22856 | 14.08571 | 7593 ft | 286 kts | 164° |
| 2026-04-27 14:49 | 36.20976 | 14.09356 | 7311 ft | 284 kts | 163° |
| 2026-04-27 14:49 | 36.19102 | 14.10137 | 7027 ft | 283 kts | 163° |
| 2026-04-27 14:50 | 36.17241 | 14.10913 | 6739 ft | 282 kts | 163° |
| 2026-04-27 14:50 | 36.15381 | 14.11689 | 6448 ft | 281 kts | 162° |
| 2026-04-27 14:50 | 36.13687 | 14.12870 | 6145 ft | 283 kts | 139° |
| 2026-04-27 14:50 | 36.12313 | 14.14556 | 5829 ft | 283 kts | 136° |
| 2026-04-27 14:51 | 36.10940 | 14.16307 | 5502 ft | 283 kts | 135° |
| 2026-04-27 14:51 | 36.09573 | 14.18067 | 5214 ft | 282 kts | 135° |
| 2026-04-27 14:51 | 36.08217 | 14.19781 | 5087 ft | 274 kts | 136° |
| 2026-04-27 14:51 | 36.07337 | 14.20880 | 5006 ft | 270 kts | 136° |
| 2026-04-27 14:52 | 36.05590 | 14.23051 | 4844 ft | 263 kts | 136° |
| 2026-04-27 14:52 | 36.04319 | 14.24629 | 4743 ft | 254 kts | 136° |
| 2026-04-27 14:52 | 36.03109 | 14.26131 | 4672 ft | 240 kts | 136° |
| 2026-04-27 14:52 | 36.01964 | 14.27554 | 4595 ft | 227 kts | 136° |
| 2026-04-27 14:53 | 36.00894 | 14.28884 | 4434 ft | 219 kts | 136° |
| 2026-04-27 14:53 | 35.99837 | 14.30198 | 4180 ft | 213 kts | 136° |
| 2026-04-27 14:53 | 35.98801 | 14.31486 | 3898 ft | 209 kts | 136° |
| 2026-04-27 14:53 | 35.97785 | 14.32749 | 3641 ft | 203 kts | 136° |
| 2026-04-27 14:54 | 35.96794 | 14.33981 | 3392 ft | 204 kts | 136° |
| 2026-04-27 14:54 | 35.95793 | 14.35227 | 3102 ft | 204 kts | 136° |
| 2026-04-27 14:54 | 35.94802 | 14.36460 | 2825 ft | 200 kts | 136° |
| 2026-04-27 14:54 | 35.93840 | 14.37656 | 2569 ft | 192 kts | 136° |
| 2026-04-27 14:55 | 35.92916 | 14.38805 | 2318 ft | 185 kts | 135° |
| 2026-04-27 14:55 | 35.92045 | 14.39891 | 2125 ft | 170 kts | 135° |
| 2026-04-27 14:55 | 35.91240 | 14.40893 | 1876 ft | 157 kts | 135° |
| 2026-04-27 14:55 | 35.90482 | 14.41837 | 1656 ft | 154 kts | 135° |
| 2026-04-27 14:56 | 35.89739 | 14.42765 | 1457 ft | 153 kts | 135° |
| 2026-04-27 14:56 | 35.88997 | 14.43693 | 1253 ft | 151 kts | 135° |
| 2026-04-27 14:56 | 35.88261 | 14.44610 | 1042 ft | 150 kts | 135° |
| 2026-04-27 14:56 | 35.87526 | 14.45524 | 844 ft | 149 kts | 136° |
| 2026-04-27 14:57 | 35.86808 | 14.46424 | 632 ft | 146 kts | 135° |
| 2026-04-27 14:57 | 35.86104 | 14.47307 | 412 ft | 142 kts | 136° |
| 2026-04-27 14:57 | 35.85413 | 14.48162 | 277 ft | 137 kts | 136° |
| 2026-04-27 14:57 | 35.84862 | 14.48844 | 258 ft | 82 kts | 135° |
| 2026-04-27 14:58 | 35.84576 | 14.49202 | 258 ft | 33 kts | 133° |
| 2026-04-27 14:58 | 35.84496 | 14.49333 | 258 ft | 28 kts | 119° |
| 2026-04-27 14:58 | 35.84447 | 14.49486 | 258 ft | 15 kts | 103° |
| 2026-04-27 14:58 | 35.84495 | 14.49573 | 258 ft | 14 kts | 3° |
| 2026-04-27 14:59 | 35.84581 | 14.49536 | 258 ft | 14 kts | 18° |
| 2026-04-27 14:59 | 35.84677 | 14.49568 | 258 ft | 16 kts | 338° |
| 2026-04-27 14:59 | 35.84760 | 14.49516 | 258 ft | 9 kts | 353° |
| 2026-04-27 14:59 | 35.84801 | 14.49514 | 258 ft | 2 kts | 359° |
| 2026-04-27 15:00 | 35.84805 | 14.49514 | 258 ft | 0 kts | 359° |